x

South Nomad (46036) Wave Buoy

11:00am - Sat 19th Apr 2014 All times are UTC.

  • Sig Wave height 17.4ft
  • Peak Period 11s
  • Wind
    31mph, 40mph gusts
  • Sea Temp 48°f
  • Air Temp 48°f
  • Sea Pressure 985.5mb

More Historic Weather Station data

Upgrade to MSW Pro to gain access to the past 30 days of data for over 8000 Wavebouys and Weather Stations around the globe.

Join Pro

Comparision Forecast

View Surf forecast
   
Sat 04/19 11:00am 17.5ft 11s 31 40 mph 985.5mb 48f 48f
10:00am 16.5ft 11s 31 38 mph 985.5mb 48f 48f
9:00am 17ft 11s 29 38 mph 985.8mb 48f 49f
8:00am 15.5ft 10s 29 38 mph 986.3mb 48f 49f
7:00am 18.5ft 11s 27 34 mph 987.1mb 48f 50f
6:00am 16.5ft 11s 27 34 mph 988.4mb 48f 50f
5:00am 17.5ft 11s 25 29 mph 989.2mb 48f 50f
4:00am 19.5ft 10s 22 29 mph 989.6mb 48f 50f
2:00am 18.5ft 10s 36 43 mph 990.5mb 48f 50f
1:00am 18.5ft 10s 38 47 mph 991.6mb 48f 50f
12:00am 16ft 8s 36 45 mph 994mb 48f 49f
Fri 04/18 11:00pm 14.5ft 8s 38 45 mph 995.9mb 48f 49f
10:00pm 12.5ft 8s 36 47 mph 998mb 48f 49f
9:00pm 11ft 7s 34 40 mph 1000.2mb 48f 48f
8:00pm 11ft 6s 36 45 mph 1002.4mb 48f 48f
7:00pm 10ft 14s 31 38 mph 1004.7mb 48f 49f
6:00pm 9.5ft 14s 29 36 mph 1006.3mb 48f 49f
5:00pm 9.5ft 10s 27 31 mph 1007.7mb 48f 48f
4:00pm 9ft 10s 25 31 mph 1009.1mb 48f 49f
3:00pm 9ft 10s 22 29 mph 1010.2mb 48f 49f
2:00pm 9ft 9s 18 22 mph 1010.8mb 48f 49f
1:00pm 9ft 13s 16 18 mph 1011.7mb 48f 49f
12:00pm 10ft 9s 18 20 mph 1012.3mb 48f 49f
11:00am 10ft 9s 16 20 mph 1013mb 48f 48f
10:00am 10.5ft 9s 16 20 mph 1013.4mb 48f 48f
9:00am 11ft 10s 16 20 mph 1013.6mb 48f 48f
8:00am 11ft 10s 16 20 mph 1013.8mb 48f 49f
7:00am 10.5ft 10s 18 22 mph 1014mb 48f 48f
6:00am 11ft 9s 22 27 mph 1013.8mb 48f 49f
5:00am 10.5ft 10s 22 27 mph 1014mb 48f 49f
4:00am 11ft 9s 22 27 mph 1013.6mb 48f 48f
3:00am 10ft 9s 22 29 mph 1013.4mb 48f 49f
2:00am 10.5ft 9s 22 27 mph 1013.3mb 48f 48f
1:00am 10ft 11s 20 25 mph 1013.4mb 48f 48f
12:00am 10.5ft 10s 20 22 mph 1013.1mb 48f 48f
Thu 04/17 11:00pm 11ft 10s 18 22 mph 1013.3mb 48f 48f
10:00pm 10.5ft 11s 20 25 mph 1013.2mb 48f 48f
9:00pm 11ft 8s 18 22 mph 1012.7mb 48f 47f
8:00pm 12ft 9s 20 25 mph 1012.4mb 48f 47f
7:00pm 11.5ft 8s 20 25 mph 1012mb 48f 46f
6:00pm 11ft 10s 22 27 mph 1011mb 48f 47f
5:00pm 12ft 11s 20 27 mph 1010.3mb 48f 47f
4:00pm 12ft 10s 25 29 mph 1009.6mb 48f 47f
3:00pm 11ft 9s 25 29 mph 1008.9mb 48f 47f
2:00pm 11ft 10s 22 29 mph 1008.1mb 48f 47f
1:00pm 11ft 11s 22 31 mph 1007.5mb 48f 47f
12:00pm 11ft 11s 22 27 mph 1007.1mb 48f 47f
11:00am 11ft 9s 20 25 mph 1006.5mb 48f 47f
10:00am 11ft 10s 22 27 mph 1005.9mb 48f 47f
9:00am 11ft 10s 22 27 mph 1005.5mb 48f 47f
8:00am 11.5ft 10s 22 27 mph 1005.1mb 48f 47f
7:00am 12ft 10s 20 25 mph 1004.7mb 48f 47f
6:00am 12ft 9s 22 29 mph 1003.9mb 48f 47f
5:00am 13.5ft 10s 25 29 mph 1003.7mb 48f 47f
4:00am 13ft 11s 27 36 mph 1002.5mb 48f 47f
3:00am 12ft 10s 31 38 mph 1000.8mb 48f 47f
2:00am 13ft 7s 31 38 mph 1000.5mb 48f 50f
1:00am 12ft 11s 31 38 mph 1001.4mb 48f 50f
12:00am 11.5ft 12s 29 38 mph 1002.5mb 48f 50f
Wed 04/16 11:00pm 11.5ft 11s 27 34 mph 1004mb 48f 50f
10:00pm 11ft 12s 27 34 mph 1005.1mb 48f 50f
9:00pm 10ft 11s 27 34 mph 1006.2mb 48f 50f
8:00pm 10ft 12s 25 31 mph 1007.4mb 48f 50f
7:00pm 11ft 12s 20 25 mph 1008.3mb 48f 49f
6:00pm 11.5ft 12s 11 13 mph 1009.4mb 48f 49f
5:00pm 11ft 12s 11 13 mph 1010mb 48f 49f
4:00pm 11.5ft 11s 13 16 mph 1010.6mb 48f 49f
3:00pm 11ft 11s 18 27 mph 1010.6mb 48f 49f
2:00pm 10ft 11s 18 20 mph 1010.9mb 48f 48f
1:00pm 10.5ft 10s 18 22 mph 1010.8mb 48f 48f
12:00pm 10.5ft 10s 20 25 mph 1010.8mb 48f 49f
11:00am 11ft 12s 18 22 mph 1010.8mb 48f 48f
10:00am 10.5ft 9s 18 22 mph 1011.1mb 48f 48f
9:00am 10.5ft 12s 20 25 mph 1011.4mb 48f 49f
8:00am 11ft 12s 20 22 mph 1011.6mb 48f 49f
7:00am 11.5ft 12s 18 22 mph 1011.7mb 48f 49f
6:00am 11.5ft 13s 18 22 mph 1011.6mb 48f 49f
5:00am 11ft 12s 20 25 mph 1011.7mb 48f 49f
3:00am 11ft 12s 18 22 mph 1011.6mb 48f 49f
2:00am 10.5ft 13s 20 27 mph 1011.6mb 48f 49f
1:00am 11ft 10s 22 25 mph 1011.9mb 48f 49f
12:00am 10ft 10s 22 27 mph 1012.2mb 48f 49f
Tue 04/15 11:00pm 9ft 9s 22 27 mph 1012.9mb 48f 49f
10:00pm 9.5ft 9s 20 22 mph 1013.9mb 48f 49f
9:00pm 9ft 9s 20 25 mph 1014.6mb 48f 49f
8:00pm 9ft 10s 20 22 mph 1015.5mb 48f 49f
7:00pm 9.5ft 7s 22 29 mph 1016mb 48f 49f
6:00pm 9ft 9s 25 29 mph 1015.7mb 48f 49f
5:00pm 9ft 9s 22 27 mph 1016.2mb 48f 49f
4:00pm 8.5ft 9s 22 29 mph 1016.3mb 48f 49f
3:00pm 8.5ft 9s 22 27 mph 1016.7mb 48f 49f
2:00pm 8ft 10s 18 20 mph 1017.1mb 48f 49f
1:00pm 8ft 10s 16 20 mph 1017.3mb 48f 49f